Time;durP1;ratioP1;P1;durP2;ratioP2;P2;SDS_P1;SDS_P2;PMS_P1;PMS_P2;Temp;Humidity;BMP_temperature;BMP_pressure;BME280_temperature;BME280_humidity;BME280_pressure;Samples;Min_cycle;Max_cycle;Signal;HPM_P1;HPM_P2
2021/05/04 00:27:30;;;;;;;13.63;4.90;;;9.40;99.90;;;;;;6215266;22;20035;-94
2021/05/04 00:29:57;;;;;;;7.85;5.30;;;9.40;99.90;;;;;;6207967;23;20091;-94
2021/05/04 00:32:22;;;;;;;6.07;4.68;;;9.40;99.90;;;;;;6211035;23;20054;-94
2021/05/04 00:34:48;;;;;;;9.90;5.22;;;9.30;99.90;;;;;;6210381;23;20017;-94
2021/05/04 00:37:14;;;;;;;10.07;4.90;;;9.40;99.90;;;;;;6210832;23;20043;-94
2021/05/04 00:39:40;;;;;;;7.13;3.80;;;9.30;99.90;;;;;;6185917;23;20087;-96
2021/05/04 00:42:06;;;;;;;6.45;4.50;;;9.30;99.90;;;;;;6212040;23;20012;-95
2021/05/04 00:44:32;;;;;;;7.55;4.65;;;9.30;99.90;;;;;;6186202;23;20024;-94
2021/05/04 00:46:58;;;;;;;4.43;3.85;;;9.20;99.90;;;;;;6210617;23;20016;-95
2021/05/04 00:49:24;;;;;;;6.43;4.90;;;9.10;99.90;;;;;;6211212;23;20070;-95
2021/05/04 00:51:52;;;;;;;6.30;5.03;;;9.00;99.90;;;;;;6211240;23;20009;-94
2021/05/04 00:54:18;;;;;;;7.30;5.80;;;9.10;99.90;;;;;;6211941;23;20084;-94
2021/05/04 00:56:45;;;;;;;6.32;4.95;;;8.90;99.90;;;;;;6211879;23;20044;-90
2021/05/04 00:59:12;;;;;;;8.55;5.43;;;8.90;99.90;;;;;;6210411;23;20159;-95
2021/05/04 01:01:38;;;;;;;6.72;5.32;;;8.90;99.90;;;;;;6212325;23;20048;-93
2021/05/04 01:04:06;;;;;;;6.70;4.70;;;8.80;99.90;;;;;;6209871;23;20020;-96
2021/05/04 01:06:32;;;;;;;5.20;4.72;;;8.80;99.90;;;;;;6211211;23;20025;-91
2021/05/04 01:08:58;;;;;;;7.72;5.03;;;8.80;99.90;;;;;;6210783;23;20015;-93
2021/05/04 01:11:24;;;;;;;5.95;4.78;;;8.70;99.90;;;;;;6211694;23;20025;-93
2021/05/04 01:13:52;;;;;;;8.13;4.57;;;8.70;99.90;;;;;;6209054;23;20025;-93
2021/05/04 01:16:18;;;;;;;7.38;4.97;;;8.60;99.90;;;;;;6210232;23;20046;-92
2021/05/04 01:18:44;;;;;;;7.28;4.47;;;8.60;99.90;;;;;;6211918;23;20024;-93
2021/05/04 01:21:10;;;;;;;7.15;4.07;;;8.60;99.90;;;;;;6209740;23;20160;-95
2021/05/04 01:23:36;;;;;;;8.30;4.15;;;8.60;99.90;;;;;;6210743;23;20436;-92
2021/05/04 01:26:03;;;;;;;5.40;4.10;;;8.60;99.90;;;;;;6209728;23;20021;-94
2021/05/04 01:28:29;;;;;;;7.25;3.92;;;8.60;99.90;;;;;;6184996;23;20017;-92
2021/05/04 01:30:56;;;;;;;5.15;3.97;;;8.60;99.90;;;;;;6184562;23;20099;-94
2021/05/04 01:33:21;;;;;;;8.23;3.42;;;8.60;99.90;;;;;;6210476;23;20051;-95
2021/05/04 01:35:48;;;;;;;4.40;3.60;;;8.60;99.90;;;;;;6187443;23;20021;-91
2021/05/04 01:38:13;;;;;;;4.28;3.97;;;8.60;99.90;;;;;;6186878;23;20339;-92
2021/05/04 01:40:39;;;;;;;4.05;3.65;;;8.60;99.90;;;;;;6186661;23;20044;-94
2021/05/04 01:43:05;;;;;;;6.22;3.38;;;8.50;99.90;;;;;;6212926;23;20343;-95
2021/05/04 01:45:32;;;;;;;5.53;3.83;;;8.50;99.90;;;;;;6187240;23;20024;-93
2021/05/04 01:47:58;;;;;;;9.18;3.58;;;8.50;99.90;;;;;;6212906;23;20017;-95
2021/05/04 01:50:24;;;;;;;4.25;3.95;;;8.40;99.90;;;;;;6213403;23;20023;-92
2021/05/04 01:52:50;;;;;;;4.35;3.95;;;8.40;99.90;;;;;;6213485;23;20305;-91
2021/05/04 01:55:15;;;;;;;4.65;4.20;;;8.40;99.90;;;;;;6187147;23;20059;-92
2021/05/04 01:57:41;;;;;;;9.90;4.85;;;8.40;99.90;;;;;;6212567;23;20016;-92
2021/05/04 02:00:09;;;;;;;5.53;4.30;;;8.40;99.90;;;;;;6212017;23;20431;-93
2021/05/04 02:02:36;;;;;;;7.15;4.25;;;8.30;99.90;;;;;;6212297;23;20120;-92
2021/05/04 02:05:03;;;;;;;5.72;4.05;;;8.30;99.90;;;;;;6211349;23;20075;-95
2021/05/04 02:07:29;;;;;;;4.70;4.30;;;8.20;99.90;;;;;;6187186;23;20023;-93
2021/05/04 02:09:56;;;;;;;4.40;4.00;;;8.20;99.90;;;;;;6212565;23;20021;-95
2021/05/04 02:12:22;;;;;;;6.13;4.93;;;8.10;99.90;;;;;;6212701;23;20374;-94
2021/05/04 02:14:51;;;;;;;5.88;4.70;;;8.20;99.90;;;;;;6162587;23;20036;-92
2021/05/04 02:17:18;;;;;;;4.80;4.35;;;8.10;99.90;;;;;;6212475;23;20047;-92
2021/05/04 02:19:44;;;;;;;7.45;4.82;;;8.10;99.90;;;;;;6186920;23;20032;-90
2021/05/04 02:22:10;;;;;;;5.95;5.00;;;8.10;99.90;;;;;;6210319;23;20548;-95
2021/05/04 02:24:36;;;;;;;6.13;4.53;;;8.10;99.90;;;;;;6212001;23;20020;-93
2021/05/04 02:27:02;;;;;;;10.75;4.53;;;8.10;99.90;;;;;;6211589;23;20020;-95
2021/05/04 02:29:28;;;;;;;6.18;4.80;;;8.00;99.90;;;;;;6187544;23;20017;-93
2021/05/04 02:31:54;;;;;;;7.57;4.32;;;8.00;99.90;;;;;;6211348;23;20070;-91
2021/05/04 02:34:20;;;;;;;6.28;4.60;;;8.00;99.90;;;;;;6162154;23;20438;-93
2021/05/04 02:36:46;;;;;;;7.35;5.18;;;8.00;99.90;;;;;;6213235;23;20096;-96
2021/05/04 02:39:12;;;;;;;13.50;5.25;;;8.10;99.90;;;;;;6187253;23;20592;-96
2021/05/04 02:41:38;;;;;;;5.43;4.80;;;7.90;99.90;;;;;;6215334;23;20019;-96
2021/05/04 02:44:04;;;;;;;6.47;4.85;;;8.00;99.90;;;;;;6163123;23;20047;-95
2021/05/04 02:46:31;;;;;;;7.82;4.88;;;7.90;99.90;;;;;;6211788;23;20012;-94
2021/05/04 02:48:57;;;;;;;7.05;5.18;;;7.90;99.90;;;;;;6211840;23;20016;-93
2021/05/04 02:51:23;;;;;;;8.65;4.55;;;7.90;99.90;;;;;;6187657;23;20017;-96
2021/05/04 02:53:48;;;;;;;13.02;4.65;;;7.90;99.90;;;;;;6214647;23;20083;-95
2021/05/04 02:56:15;;;;;;;7.78;5.15;;;7.90;99.90;;;;;;6216346;23;20013;-96
2021/05/04 02:58:40;;;;;;;8.38;4.28;;;7.90;99.90;;;;;;6217419;23;20013;-96
2021/05/04 03:01:06;;;;;;;6.05;4.30;;;7.80;99.90;;;;;;6215361;23;20454;-96
2021/05/04 03:03:35;;;;;;;5.35;4.53;;;7.90;99.90;;;;;;6215679;23;20404;-94
2021/05/04 03:06:03;;;;;;;8.55;4.28;;;7.80;99.90;;;;;;6189440;23;20389;-96
2021/05/04 03:08:29;;;;;;;4.50;4.10;;;7.80;99.90;;;;;;6191445;23;20021;-95
2021/05/04 03:10:55;;;;;;;9.32;4.80;;;7.80;99.90;;;;;;6187920;23;20017;-93
2021/05/04 03:13:26;;;;;;;5.13;4.28;;;7.80;99.90;;;;;;6163707;23;20398;-96
2021/05/04 03:15:52;;;;;;;;;;;7.80;99.90;;;;;;6226588;23;20070;-96
2021/05/04 03:18:18;;;;;;;8.55;3.10;;;7.80;99.90;;;;;;6215003;23;20649;-95
2021/05/04 03:20:44;;;;;;;7.85;3.97;;;7.70;99.90;;;;;;6213932;23;20032;-95
2021/05/04 03:23:11;;;;;;;6.90;2.83;;;7.80;99.90;;;;;;6212499;23;20017;-96
2021/05/04 03:25:37;;;;;;;11.40;2.90;;;7.80;99.90;;;;;;6213542;23;20027;-96
2021/05/04 03:28:03;;;;;;;4.43;3.20;;;7.80;99.90;;;;;;6216844;23;20024;-95
2021/05/04 03:30:29;;;;;;;4.15;2.33;;;7.80;99.90;;;;;;6217783;23;20023;-95
2021/05/04 03:32:56;;;;;;;6.55;2.80;;;7.80;99.90;;;;;;6192809;23;20397;-91
2021/05/04 03:35:22;;;;;;;3.58;2.78;;;7.70;99.90;;;;;;6243626;23;20020;-95
2021/05/04 03:37:48;;;;;;;3.05;2.75;;;7.80;99.90;;;;;;6217265;23;20012;-95
2021/05/04 03:40:16;;;;;;;4.75;3.25;;;7.80;99.90;;;;;;6216584;23;20082;-94
2021/05/04 03:42:47;;;;;;;8.48;2.78;;;7.80;99.90;;;;;;6243625;23;20020;-94
2021/05/04 03:45:14;;;;;;;9.05;2.88;;;7.80;99.90;;;;;;6215724;23;20511;-95
2021/05/04 03:47:42;;;;;;;5.15;2.53;;;7.80;99.90;;;;;;6191541;23;20026;-95
2021/05/04 03:50:11;;;;;;;5.95;2.75;;;7.80;99.90;;;;;;6216559;23;20024;-95
2021/05/04 03:52:36;;;;;;;2.85;2.40;;;7.80;99.90;;;;;;6216444;23;20480;-94
2021/05/04 03:55:03;;;;;;;7.50;2.63;;;7.80;99.90;;;;;;6215962;23;20016;-94
2021/05/04 03:57:29;;;;;;;6.18;3.20;;;7.80;99.90;;;;;;6216079;23;20039;-94
2021/05/04 03:59:55;;;;;;;7.68;3.20;;;7.80;99.90;;;;;;6191126;23;20453;-93
2021/05/04 04:02:21;;;;;;;4.53;2.85;;;7.80;99.90;;;;;;6215322;23;20369;-94
2021/05/04 04:04:47;;;;;;;10.07;2.38;;;7.90;99.90;;;;;;6242564;23;20020;-94
2021/05/04 04:07:12;;;;;;;3.72;2.40;;;7.80;99.90;;;;;;6190614;23;20012;-93
2021/05/04 04:09:38;;;;;;;4.35;2.30;;;7.90;99.90;;;;;;6216435;23;20434;-91
2021/05/04 04:12:04;;;;;;;6.47;3.10;;;7.90;99.90;;;;;;6215467;23;20024;-95
2021/05/04 04:14:30;;;;;;;6.45;2.95;;;7.90;99.90;;;;;;6216933;23;20023;-93
2021/05/04 04:16:56;;;;;;;7.93;2.60;;;7.90;99.90;;;;;;6192015;23;20020;-95
2021/05/04 04:19:22;;;;;;;3.20;2.90;;;7.90;99.90;;;;;;6191266;23;20016;-95
2021/05/04 04:21:49;;;;;;;3.97;2.70;;;7.90;99.90;;;;;;6216659;23;20023;-94
2021/05/04 04:24:18;;;;;;;7.90;3.65;;;7.90;99.90;;;;;;6191405;23;20126;-92
2021/05/04 04:26:44;;;;;;;5.43;2.70;;;7.90;99.90;;;;;;6215977;23;20020;-94
2021/05/04 04:29:11;;;;;;;3.88;3.15;;;7.90;99.90;;;;;;6230234;23;20043;-94
2021/05/04 04:31:37;;;;;;;8.35;3.10;;;7.90;99.90;;;;;;6212594;23;20091;-94
2021/05/04 04:34:04;;;;;;;3.42;3.00;;;7.90;99.90;;;;;;6211751;23;20021;-91
2021/05/04 04:36:29;;;;;;;9.35;3.35;;;7.90;99.90;;;;;;6186133;23;20027;-93
2021/05/04 04:38:55;;;;;;;6.15;3.05;;;7.90;99.90;;;;;;6211903;23;20343;-94
2021/05/04 04:41:21;;;;;;;3.22;2.67;;;8.00;99.90;;;;;;6209719;23;20012;-93
2021/05/04 04:43:47;;;;;;;5.50;2.88;;;7.90;99.90;;;;;;6186817;23;20021;-93
2021/05/04 04:46:12;;;;;;;2.70;2.50;;;8.00;99.90;;;;;;6185264;23;20012;-96
2021/05/04 04:48:38;;;;;;;3.78;2.60;;;8.00;99.90;;;;;;6211245;23;20522;-95
2021/05/04 04:51:04;;;;;;;5.05;2.60;;;8.00;99.90;;;;;;6210614;23;20453;-90
2021/05/04 04:53:30;;;;;;;2.72;2.50;;;8.10;99.90;;;;;;6185610;23;20071;-95
2021/05/04 04:55:56;;;;;;;5.10;2.88;;;8.10;99.90;;;;;;6211168;23;20375;-96
2021/05/04 04:58:22;;;;;;;5.22;2.63;;;8.10;99.90;;;;;;6184976;23;20021;-94
2021/05/04 05:00:48;;;;;;;5.75;2.55;;;8.20;99.90;;;;;;6186064;23;20075;-95
2021/05/04 05:03:14;;;;;;;3.13;2.33;;;8.20;99.90;;;;;;6185027;23;20020;-95
2021/05/04 05:05:40;;;;;;;2.83;2.33;;;8.20;99.90;;;;;;6186003;23;20027;-95
2021/05/04 05:08:05;;;;;;;2.95;2.40;;;8.20;99.90;;;;;;6210840;23;20019;-90
2021/05/04 05:10:31;;;;;;;2.88;2.50;;;8.20;99.90;;;;;;6213403;23;20070;-94
2021/05/04 05:12:58;;;;;;;2.70;2.47;;;8.20;99.90;;;;;;6187936;23;20070;-95
2021/05/04 05:15:24;;;;;;;6.32;2.60;;;8.20;99.90;;;;;;6212039;23;20040;-94
2021/05/04 05:17:50;;;;;;;2.92;2.40;;;8.20;99.90;;;;;;6214028;23;20083;-95
2021/05/04 05:20:16;;;;;;;6.03;2.85;;;8.20;99.90;;;;;;6212376;23;20383;-96
2021/05/04 05:22:45;;;;;;;9.02;2.53;;;8.20;99.90;;;;;;6212676;23;20016;-95
2021/05/04 05:25:11;;;;;;;6.25;2.83;;;8.20;99.90;;;;;;6211624;23;20043;-91
2021/05/04 05:27:37;;;;;;;4.22;2.60;;;8.20;99.90;;;;;;6212615;23;20054;-95
2021/05/04 05:30:10;;;;;;;2.92;2.50;;;8.20;99.90;;;;;;6217261;23;20457;-94
2021/05/04 05:32:36;;;;;;;2.80;2.42;;;8.20;99.90;;;;;;6243904;23;20016;-93
2021/05/04 05:35:04;;;;;;;2.83;2.00;;;8.20;99.90;;;;;;6192651;23;20024;-94
2021/05/04 05:37:29;;;;;;;9.00;2.00;;;8.20;99.90;;;;;;6216474;23;20020;-93
2021/05/04 05:39:55;;;;;;;2.55;2.22;;;8.20;99.90;;;;;;6217167;23;20051;-94
2021/05/04 05:42:21;;;;;;;2.25;2.03;;;8.30;99.90;;;;;;6215843;23;20022;-93
2021/05/04 05:44:47;;;;;;;3.30;1.92;;;8.30;99.90;;;;;;6217939;23;20023;-93
2021/05/04 05:47:13;;;;;;;2.53;1.90;;;8.30;99.90;;;;;;6216337;23;20027;-95
2021/05/04 05:49:39;;;;;;;6.38;1.95;;;8.40;99.90;;;;;;6217556;23;20020;-92
2021/05/04 05:52:05;;;;;;;5.25;2.20;;;8.50;99.90;;;;;;6217496;23;20454;-94
2021/05/04 05:54:31;;;;;;;3.80;2.13;;;8.50;99.90;;;;;;6216013;23;20078;-93
2021/05/04 05:56:58;;;;;;;3.30;2.00;;;8.60;99.90;;;;;;6243860;23;20312;-93
2021/05/04 05:59:24;;;;;;;4.30;1.95;;;8.70;99.90;;;;;;6242719;23;20050;-93
2021/05/04 06:01:50;;;;;;;2.22;2.13;;;8.70;99.90;;;;;;6244014;23;20016;-95
2021/05/04 06:04:15;;;;;;;5.13;2.50;;;8.70;99.90;;;;;;6243571;23;20070;-94
2021/05/04 06:06:41;;;;;;;6.75;2.30;;;8.60;99.90;;;;;;6217987;23;20024;-95
2021/05/04 06:09:08;;;;;;;6.55;1.98;;;8.60;99.90;;;;;;6217949;23;20020;-92
2021/05/04 06:11:35;;;;;;;4.72;2.15;;;8.60;99.90;;;;;;6192876;23;20069;-94
2021/05/04 06:14:00;;;;;;;5.22;1.58;;;8.60;99.90;;;;;;6192874;23;20435;-94
2021/05/04 06:16:26;;;;;;;5.22;1.65;;;8.70;99.90;;;;;;6216359;23;20016;-94
2021/05/04 06:18:52;;;;;;;3.90;1.42;;;8.70;99.90;;;;;;6216946;23;20067;-93
2021/05/04 06:21:18;;;;;;;4.03;2.47;;;8.60;99.90;;;;;;6192139;23;20035;-96
2021/05/04 06:23:44;;;;;;;6.65;1.80;;;8.60;99.90;;;;;;6244235;23;20024;-92
2021/05/04 06:26:09;;;;;;;3.53;2.03;;;8.60;99.90;;;;;;6217414;23;20031;-91
2021/05/04 06:28:35;;;;;;;3.65;1.95;;;8.60;99.90;;;;;;6215924;23;20012;-93
2021/05/04 06:31:03;;;;;;;6.57;1.92;;;8.50;99.90;;;;;;6222855;23;20100;-92
2021/05/04 06:33:30;;;;;;;6.68;2.58;;;8.60;99.90;;;;;;6210972;23;20143;-94
2021/05/04 06:35:56;;;;;;;5.35;2.20;;;8.60;99.90;;;;;;6211950;23;20095;-94
2021/05/04 06:38:22;;;;;;;7.03;1.98;;;8.60;99.90;;;;;;6211540;23;20052;-94
2021/05/04 06:40:50;;;;;;;4.13;2.28;;;8.60;99.90;;;;;;6187318;23;20378;-94
2021/05/04 06:43:17;;;;;;;6.45;2.17;;;8.70;99.90;;;;;;6211867;23;20016;-93
2021/05/04 06:45:43;;;;;;;2.50;2.13;;;8.70;99.90;;;;;;6212798;23;20028;-93
2021/05/04 06:48:09;;;;;;;6.50;3.15;;;8.80;99.90;;;;;;6212557;23;20021;-91
2021/05/04 06:50:35;;;;;;;7.53;1.90;;;8.90;99.90;;;;;;6211979;23;20024;-92
2021/05/04 06:53:01;;;;;;;3.83;1.65;;;9.00;99.90;;;;;;6212427;23;20012;-94
2021/05/04 06:55:27;;;;;;;5.07;1.98;;;9.10;99.90;;;;;;6212060;23;20023;-93
2021/05/04 06:57:53;;;;;;;5.00;1.98;;;9.20;99.90;;;;;;6211723;23;20401;-93
2021/05/04 07:00:20;;;;;;;6.03;1.67;;;9.30;99.90;;;;;;6184865;23;20025;-93
2021/05/04 07:02:47;;;;;;;5.30;2.22;;;9.40;99.90;;;;;;6211711;23;20020;-94
2021/05/04 07:05:14;;;;;;;5.80;2.03;;;9.40;99.90;;;;;;6187045;23;20025;-93
2021/05/04 07:07:40;;;;;;;5.05;1.98;;;9.40;99.90;;;;;;6213137;23;20031;-92
2021/05/04 07:10:06;;;;;;;4.53;2.00;;;9.40;99.90;;;;;;6211924;23;20323;-93
2021/05/04 07:12:32;;;;;;;7.43;2.50;;;9.30;99.90;;;;;;6211084;23;20031;-95
2021/05/04 07:14:58;;;;;;;4.47;1.92;;;9.30;99.90;;;;;;6212956;23;20020;-95
2021/05/04 07:17:25;;;;;;;3.33;1.38;;;9.30;99.90;;;;;;6185690;23;20051;-91
2021/05/04 07:19:53;;;;;;;2.72;1.48;;;9.30;99.90;;;;;;6212883;23;20097;-95
2021/05/04 07:22:23;;;;;;;6.28;2.03;;;9.40;99.90;;;;;;6210443;23;20040;-94
2021/05/04 07:24:49;;;;;;;5.95;1.33;;;9.30;99.90;;;;;;6212203;23;20012;-94
2021/05/04 07:27:15;;;;;;;6.07;2.22;;;9.30;99.90;;;;;;6210501;23;20143;-92
2021/05/04 07:29:40;;;;;;;9.20;2.05;;;9.30;99.90;;;;;;6210905;23;20031;-93
2021/05/04 07:32:06;;;;;;;3.33;1.67;;;9.30;99.90;;;;;;6186506;23;20013;-94
2021/05/04 07:34:32;;;;;;;3.90;1.73;;;9.30;99.90;;;;;;6185760;23;20458;-92
2021/05/04 07:37:01;;;;;;;9.15;2.25;;;9.30;99.90;;;;;;6211505;23;20451;-95
2021/05/04 07:39:27;;;;;;;9.60;2.40;;;9.40;99.90;;;;;;6185359;23;20016;-93
2021/05/04 07:41:53;;;;;;;10.40;2.13;;;9.50;99.90;;;;;;6211292;23;20083;-94
2021/05/04 07:44:21;;;;;;;15.70;2.20;;;9.50;99.90;;;;;;6185971;23;20028;-91
2021/05/04 07:46:46;;;;;;;15.23;3.70;;;9.40;99.90;;;;;;6211071;23;20016;-94
2021/05/04 07:49:18;;;;;;;14.15;3.28;;;9.40;99.90;;;;;;6212800;23;20020;-94
2021/05/04 07:51:44;;;;;;;15.88;3.60;;;9.30;99.90;;;;;;6197257;23;20020;-93
2021/05/04 07:54:10;;;;;;;9.60;2.30;;;9.30;99.90;;;;;;6186499;23;20013;-95
2021/05/04 07:56:36;;;;;;;7.25;1.88;;;9.20;99.90;;;;;;6223819;23;20043;-93
2021/05/04 07:59:02;;;;;;;7.90;2.10;;;9.10;99.90;;;;;;6218126;23;20043;-96
2021/05/04 08:01:28;;;;;;;9.88;2.03;;;8.90;99.90;;;;;;6165142;23;20016;-94
2021/05/04 08:03:53;;;;;;;10.23;1.70;;;8.90;99.90;;;;;;6214528;23;20075;-95
2021/05/04 08:06:19;;;;;;;9.50;2.35;;;8.90;99.90;;;;;;6211566;23;20047;-90
2021/05/04 08:08:45;;;;;;;12.38;2.70;;;8.90;99.90;;;;;;6214161;23;20564;-94
2021/05/04 08:11:11;;;;;;;15.15;2.63;;;8.90;99.90;;;;;;6188477;23;20017;-96
2021/05/04 08:13:37;;;;;;;26.13;4.07;;;8.90;99.90;;;;;;6163354;23;20081;-95
2021/05/04 08:16:07;;;;;;;14.23;2.97;;;8.70;99.90;;;;;;6187650;23;20024;-93
2021/05/04 08:18:33;;;;;;;12.55;2.58;;;8.50;99.90;;;;;;6213351;23;20024;-95
2021/05/04 08:20:59;;;;;;;12.30;2.75;;;8.30;99.90;;;;;;6191708;23;20090;-96
2021/05/04 08:23:25;;;;;;;21.73;3.60;;;8.30;99.90;;;;;;6221824;23;20032;-96
2021/05/04 08:25:52;;;;;;;24.95;4.53;;;8.50;99.90;;;;;;6224396;23;20032;-93
2021/05/04 08:28:19;;;;;;;18.13;3.42;;;8.60;99.90;;;;;;6218494;23;20180;-95
2021/05/04 08:30:45;;;;;;;26.67;3.70;;;8.70;99.90;;;;;;6168400;23;20021;-96
2021/05/04 08:33:11;;;;;;;25.65;4.15;;;8.80;99.90;;;;;;6217712;23;20020;-96
2021/05/04 08:35:37;;;;;;;25.50;3.83;;;9.00;99.90;;;;;;6190180;23;20125;-96
2021/05/04 08:38:04;;;;;;;23.13;3.63;;;9.20;99.90;;;;;;6211323;23;20031;-96
2021/05/04 08:40:30;;;;;;;23.50;4.43;;;9.50;99.90;;;;;;6213211;23;20509;-95
2021/05/04 08:42:56;;;;;;;22.35;4.22;;;9.80;99.90;;;;;;6212935;23;20017;-93
2021/05/04 08:45:22;;;;;;;21.17;3.58;;;10.00;99.90;;;;;;6212217;23;20435;-90
2021/05/04 08:47:50;;;;;;;20.10;4.25;;;10.20;99.90;;;;;;6211096;23;20020;-90
2021/05/04 08:50:21;;;;;;;20.13;3.95;;;10.40;99.90;;;;;;6212044;23;20446;-93
2021/05/04 08:52:48;;;;;;;14.93;3.30;;;10.60;99.90;;;;;;6221755;23;20016;-91
2021/05/04 08:55:15;;;;;;;13.93;3.20;;;10.60;99.90;;;;;;6213202;23;20013;-93
2021/05/04 08:57:42;;;;;;;19.88;2.97;;;10.40;99.90;;;;;;6212851;23;20365;-91
2021/05/04 09:00:10;;;;;;;14.88;2.65;;;10.40;99.90;;;;;;6208462;23;20026;-89
2021/05/04 09:02:57;;;;;;;16.85;2.97;;;10.30;99.90;;;;;;6212416;23;20013;-93
2021/05/04 09:05:23;;;;;;;8.25;2.22;;;10.20;99.90;;;;;;6214546;23;20016;-90
2021/05/04 09:07:50;;;;;;;11.15;1.25;;;10.10;99.90;;;;;;6187462;23;20443;-94
2021/05/04 09:10:38;;;;;;;9.05;1.73;;;10.00;99.90;;;;;;6213017;23;20058;-94
2021/05/04 09:13:15;;;;;;;15.73;2.13;;;10.00;99.90;;;;;;6212210;23;20024;-96
2021/05/04 09:18:36;;;;;;;10.95;2.08;;;10.00;99.90;;;;;;6212343;23;20035;-95
2021/05/04 09:21:04;;;;;;;15.80;3.47;;;10.20;99.90;;;;;;6212632;23;20048;-90
2021/05/04 09:23:30;;;;;;;18.20;3.05;;;10.30;99.90;;;;;;6212188;23;20016;-94
2021/05/04 09:25:56;;;;;;;14.63;2.58;;;10.50;99.90;;;;;;6186435;23;20496;-92
2021/05/04 09:28:22;;;;;;;18.23;2.80;;;10.80;99.90;;;;;;6162717;23;20087;-94
2021/05/04 09:30:56;;;;;;;19.60;3.38;;;11.00;99.90;;;;;;6215309;23;20087;-94
2021/05/04 09:33:23;;;;;;;15.30;2.83;;;11.30;99.90;;;;;;6243183;23;20027;-93
2021/05/04 09:35:49;;;;;;;10.27;2.30;;;11.40;99.90;;;;;;6242511;23;20244;-95
2021/05/04 09:38:19;;;;;;;12.77;2.75;;;11.50;99.90;;;;;;6217305;23;20346;-92
2021/05/04 09:40:47;;;;;;;13.82;3.35;;;11.40;99.90;;;;;;6242464;23;20020;-94
2021/05/04 09:43:18;;;;;;;9.70;1.60;;;11.10;99.90;;;;;;6243483;23;20044;-96
2021/05/04 09:45:51;;;;;;;10.75;2.50;;;10.90;99.90;;;;;;6215635;23;20023;-94
2021/05/04 09:48:23;;;;;;;10.93;2.78;;;11.00;99.90;;;;;;6216218;23;20439;-94
2021/05/04 09:51:02;;;;;;;9.00;2.08;;;11.20;99.90;;;;;;6215672;23;20016;-96
2021/05/04 09:53:37;;;;;;;9.77;1.98;;;11.40;99.90;;;;;;6242666;23;20012;-89
2021/05/04 09:56:03;;;;;;;8.90;2.40;;;11.50;99.90;;;;;;6242349;23;20469;-92
2021/05/04 09:58:34;;;;;;;10.88;2.30;;;11.70;99.90;;;;;;6242506;23;20519;-90
2021/05/04 10:01:01;;;;;;;6.03;1.58;;;11.90;99.90;;;;;;6216516;23;20016;-92
2021/05/04 10:03:28;;;;;;;9.95;3.00;;;12.00;99.90;;;;;;6215851;23;20020;-93
2021/05/04 10:05:58;;;;;;;10.93;2.58;;;12.20;99.90;;;;;;6216004;23;20020;-94
2021/05/04 10:08:27;;;;;;;10.65;1.98;;;12.20;99.90;;;;;;6226931;23;20343;-96
2021/05/04 10:10:53;;;;;;;9.48;2.05;;;12.10;99.90;;;;;;6216461;23;20016;-95
2021/05/04 10:13:20;;;;;;;15.15;2.83;;;11.80;99.90;;;;;;6216569;23;20032;-94
2021/05/04 10:15:46;;;;;;;9.80;2.88;;;11.10;99.90;;;;;;6216016;23;20038;-94
2021/05/04 10:18:13;;;;;;;5.22;1.67;;;10.40;99.90;;;;;;6243529;23;20028;-94
2021/05/04 10:20:42;;;;;;;7.90;1.55;;;10.00;99.90;;;;;;6215581;23;20520;-92
2021/05/04 10:23:12;;;;;;;14.10;3.03;;;9.70;99.90;;;;;;6242967;23;20016;-92
2021/05/04 10:25:39;;;;;;;10.02;2.30;;;9.60;99.90;;;;;;6190873;23;20020;-93
2021/05/04 10:28:07;;;;;;;10.10;2.00;;;9.60;99.90;;;;;;6215306;23;20027;-91
2021/05/04 10:30:34;;;;;;;7.68;2.15;;;9.60;99.90;;;;;;6218919;23;20027;-89
2021/05/04 10:33:11;;;;;;;9.25;2.10;;;9.70;99.90;;;;;;6209608;23;20024;-93
2021/05/04 10:35:39;;;;;;;9.77;2.40;;;9.70;99.90;;;;;;6219505;23;20024;-95
2021/05/04 10:38:10;;;;;;;6.32;2.25;;;9.80;99.90;;;;;;6210854;23;20024;-94
2021/05/04 10:40:45;;;;;;;7.15;1.55;;;10.00;99.90;;;;;;6222827;23;20017;-96
2021/05/04 10:43:23;;;;;;;10.27;2.60;;;10.00;99.90;;;;;;6213476;23;20028;-93
2021/05/04 10:45:54;;;;;;;9.80;1.60;;;10.00;99.90;;;;;;6211623;23;20025;-96
2021/05/04 10:48:42;;;;;;;15.02;2.00;;;10.00;99.90;;;;;;6222217;23;20016;-95
2021/05/04 10:51:10;;;;;;;8.77;2.50;;;9.80;99.90;;;;;;6213482;23;20031;-93
2021/05/04 10:53:57;;;;;;;14.57;2.45;;;9.60;99.90;;;;;;6211067;23;20030;-91
2021/05/04 10:56:38;;;;;;;9.65;1.65;;;9.60;99.90;;;;;;6213465;23;20020;-96
2021/05/04 10:59:06;;;;;;;5.93;2.05;;;9.60;99.90;;;;;;6198595;23;20095;-94
2021/05/04 11:01:33;;;;;;;7.72;1.50;;;9.60;99.90;;;;;;6211730;23;20524;-96
2021/05/04 11:04:00;;;;;;;6.63;1.33;;;9.70;99.90;;;;;;6213265;23;20058;-96
2021/05/04 11:06:26;;;;;;;5.85;1.40;;;9.90;99.90;;;;;;6212658;23;20099;-96
2021/05/04 11:08:52;;;;;;;5.20;1.13;;;10.00;99.90;;;;;;6211541;23;20452;-95
2021/05/04 11:11:39;;;;;;;3.03;0.85;;;9.80;99.90;;;;;;6213586;23;20019;-96
2021/05/04 11:14:23;;;;;;;0.45;0.20;;;9.60;99.90;;;;;;6223618;23;20087;-96
2021/05/04 11:16:56;;;;;;;2.20;0.55;;;9.20;99.90;;;;;;6213948;23;20021;-96
2021/05/04 11:19:35;;;;;;;3.08;0.60;;;8.90;99.90;;;;;;6213284;23;20481;-95
2021/05/04 11:22:08;;;;;;;1.98;0.50;;;8.60;99.90;;;;;;6224206;23;20066;-95
2021/05/04 11:24:36;;;;;;;2.13;0.50;;;8.60;99.90;;;;;;6213391;23;20079;-89
2021/05/04 11:27:24;;;;;;;1.23;0.73;;;8.70;99.90;;;;;;6190886;23;20027;-96
2021/05/04 11:29:53;;;;;;;4.60;1.02;;;8.90;99.90;;;;;;6206654;23;20119;-95
2021/05/04 11:32:25;;;;;;;2.58;0.52;;;9.10;99.90;;;;;;6186576;23;20099;-94
2021/05/04 11:34:50;;;;;;;1.50;0.60;;;9.20;99.90;;;;;;6210230;23;20083;-94
2021/05/04 11:37:19;;;;;;;2.13;0.95;;;9.30;99.90;;;;;;6211952;23;20044;-92
2021/05/04 11:42:29;;;;;;;11.30;1.60;;;9.70;99.90;;;;;;6212269;23;20017;-95
2021/05/04 11:45:06;;;;;;;7.90;1.33;;;9.90;99.90;;;;;;6212820;23;20090;-92
2021/05/04 11:47:32;;;;;;;4.28;1.10;;;10.00;99.90;;;;;;6212832;23;20082;-93
2021/05/04 11:50:18;;;;;;;8.95;1.48;;;10.00;99.90;;;;;;6211323;23;20082;-95
2021/05/04 11:52:46;;;;;;;10.82;1.30;;;9.80;99.90;;;;;;6220725;23;20024;-95
2021/05/04 11:55:25;;;;;;;1.75;0.75;;;9.50;99.90;;;;;;6212972;23;20039;-95
2021/05/04 11:58:02;;;;;;;4.90;1.17;;;9.30;99.90;;;;;;6222400;23;20066;-93
2021/05/04 12:00:30;;;;;;;4.65;1.60;;;9.20;99.90;;;;;;6213450;23;20458;-96
2021/05/04 12:03:03;;;;;;;5.50;1.48;;;9.10;99.90;;;;;;6210428;23;20016;-96
2021/05/04 12:05:31;;;;;;;7.95;1.25;;;9.10;99.90;;;;;;6223273;23;20013;-96
2021/05/04 12:07:58;;;;;;;4.10;1.80;;;9.20;99.90;;;;;;6211652;23;20024;-93
2021/05/04 12:10:47;;;;;;;8.23;1.30;;;9.40;99.90;;;;;;6211751;23;20017;-95
2021/05/04 12:13:15;;;;;;;2.90;1.05;;;9.80;99.90;;;;;;6220887;23;20397;-96
2021/05/04 12:15:42;;;;;;;3.33;1.00;;;10.10;99.90;;;;;;6212776;23;20017;-90
2021/05/04 12:18:20;;;;;;;2.75;0.90;;;10.00;99.90;;;;;;6211343;23;20020;-94
2021/05/04 12:20:50;;;;;;;4.68;1.10;;;9.90;99.90;;;;;;6219961;23;20020;-96
2021/05/04 12:23:35;;;;;;;4.00;0.80;;;9.60;99.90;;;;;;6212417;23;20435;-95
2021/05/04 12:26:06;;;;;;;2.92;0.75;;;9.60;99.90;;;;;;6220061;23;20012;-95
2021/05/04 12:28:46;;;;;;;2.88;0.90;;;9.70;99.90;;;;;;6216512;23;20024;-95
2021/05/04 12:31:19;;;;;;;2.20;0.88;;;9.80;99.90;;;;;;6211962;23;20024;-95
2021/05/04 12:33:51;;;;;;;3.85;0.80;;;10.00;99.90;;;;;;6212220;23;20465;-95
2021/05/04 12:36:37;;;;;;;5.13;1.27;;;10.10;99.90;;;;;;6223087;23;20023;-96
2021/05/04 12:39:11;;;;;;;4.72;1.05;;;10.10;99.90;;;;;;6221766;23;20604;-93
2021/05/04 12:41:38;;;;;;;6.35;1.25;;;10.00;99.90;;;;;;6187518;23;20039;-95
2021/05/04 12:44:21;;;;;;;5.25;1.48;;;9.70;99.90;;;;;;6211727;23;20115;-96
2021/05/04 12:46:49;;;;;;;5.70;1.60;;;9.40;99.90;;;;;;6219660;23;20023;-95
2021/05/04 12:49:16;;;;;;;11.93;1.73;;;9.00;99.90;;;;;;6213473;23;20079;-93
2021/05/04 12:51:51;;;;;;;4.68;1.70;;;8.80;99.90;;;;;;6205954;23;20323;-92
2021/05/04 12:54:20;;;;;;;4.82;1.58;;;8.30;99.90;;;;;;6210971;23;20020;-91
2021/05/04 12:56:52;;;;;;;7.47;1.52;;;8.40;99.90;;;;;;6209754;23;20020;-91
2021/05/04 12:59:31;;;;;;;7.13;1.65;;;8.60;99.90;;;;;;6184556;23;20017;-91
2021/05/04 13:02:04;;;;;;;3.88;1.85;;;8.70;99.90;;;;;;6209268;23;20933;-92
2021/05/04 13:04:42;;;;;;;5.38;1.65;;;8.90;99.90;;;;;;6211712;23;20028;-91
2021/05/04 13:10:46;;;;;;;6.32;2.13;;;9.10;99.90;;;;;;6220378;23;20019;-91
2021/05/04 13:30:27;;;;;;;8.95;1.90;;;9.30;99.90;;;;;;6209191;23;20071;-93
2021/05/04 13:32:57;;;;;;;7.18;1.50;;;8.90;99.90;;;;;;6219619;23;20096;-94
2021/05/04 13:35:29;;;;;;;7.43;1.77;;;8.80;99.90;;;;;;6210731;23;20025;-94
2021/05/04 13:38:03;;;;;;;2.50;1.38;;;8.80;99.90;;;;;;6195717;23;20021;-93
2021/05/04 13:44:47;;;;;;;4.30;1.20;;;9.10;99.90;;;;;;6220007;23;20012;-92
2021/05/04 13:48:59;;;;;;;1.58;1.00;;;9.30;99.90;;;;;;6219833;23;20439;-93
2021/05/04 13:51:25;;;;;;;3.38;1.20;;;9.30;99.90;;;;;;6182249;23;20016;-93
2021/05/04 13:53:50;;;;;;;3.47;1.00;;;9.50;99.90;;;;;;6209549;23;20024;-93
2021/05/04 13:56:16;;;;;;;5.00;1.35;;;9.60;99.90;;;;;;6183928;23;20019;-92